| time (UTC) | temp F | wind direction | speed knots | gust knots | rain 1hr in | rain 24hr in | rain mn in | humidity % | barometer mb |
| 20260906100905 | 62 | 188 | 0.0 | 0.0 | 0.00 | 0.00 | 0.00 | 99 | 985.8 |
| 20260906090905 | 62 | 199 | 0.0 | 0.0 | 0.00 | 0.00 | 0.00 | 99 | 986.2 |
| 20260906090405 | 62 | 180 | 0.0 | 0.9 | 0.00 | 0.00 | 0.00 | 98 | 986.1 |
| 20260906080907 | 61 | 305 | 0.0 | 0.0 | 0.00 | 0.00 | 0.00 | 96 | 985.7 |
| 20260906080406 | 61 | 202 | 0.0 | 0.0 | 0.00 | 0.00 | 0.00 | 97 | 985.6 |
| 20260906070905 | 62 | 202 | 0.0 | 0.0 | 0.00 | 0.00 | 0.00 | 95 | 985.5 |
| 20260906060905 | 63 | 270 | 0.9 | 1.7 | 0.00 | 0.00 | 0.00 | 92 | 986.0 |
| 20260906050905 | 64 | 174 | 0.0 | 0.0 | 0.00 | 0.00 | 0.00 | 90 | 986.2 |
| 20260906050406 | 64 | 193 | 0.0 | 1.7 | 0.00 | 0.00 | 0.00 | 90 | 986.4 |
| 20260906040905 | 65 | 180 | 0.0 | 0.0 | 0.00 | 0.00 | 0.00 | 87 | 986.5 |
| 20260906040408 | 66 | 292 | 0.9 | 0.9 | 0.00 | 0.00 | 0.00 | 86 | 986.6 |
| 20260906030904 | 68 | 121 | 0.0 | 0.0 | 0.00 | 0.00 | 0.00 | 81 | 986.5 |
| 20260906030404 | 68 | 171 | 0.0 | 1.7 | 0.00 | 0.00 | 0.00 | 80 | 986.4 |
| 20260906020905 | 70 | 263 | 1.7 | 1.7 | 0.00 | 0.00 | 0.00 | 77 | 986.2 |
| 20260906020408 | 71 | 270 | 0.0 | 1.7 | 0.00 | 0.00 | 0.00 | 76 | 986.0 |
| 20260906010405 | 73 | 267 | 0.0 | 0.9 | 0.00 | 0.00 | 0.00 | 71 | 985.1 |
| 20260906000905 | 78 | 269 | 0.9 | 0.9 | 0.00 | 0.00 | 0.00 | 62 | 984.7 |
| 20260906000405 | 78 | 218 | 0.9 | 4.3 | 0.00 | 0.00 | 0.00 | 61 | 984.9 |
| 20260905230905 | 86 | 219 | 1.7 | 1.7 | 0.00 | 0.00 | 0.00 | 50 | 984.3 |
| 20260905230405 | 87 | 290 | 1.7 | 7.8 | 0.00 | 0.00 | 0.00 | 48 | 984.0 |
| 20260905220904 | 99 | 208 | 2.6 | 4.3 | 0.00 | 0.00 | 0.00 | 33 | 984.1 |
| 20260905210406 | 102 | 273 | 1.7 | 6.1 | 0.00 | 0.00 | 0.00 | 30 | 984.1 |
| 20260905200904 | 97 | 168 | 1.7 | 2.6 | 0.00 | 0.00 | 0.00 | 36 | 984.7 |
| 20260905200404 | 99 | 265 | 1.7 | 5.2 | 0.00 | 0.00 | 0.00 | 33 | 984.8 |
| 20260905190905 | 99 | 268 | 1.7 | 4.3 | 0.00 | 0.00 | 0.00 | 37 | 985.5 |
| 20260905190406 | 98 | 191 | 2.6 | 4.3 | 0.00 | 0.00 | 0.00 | 38 | 985.5 |
| 20260905180905 | 88 | 194 | 0.0 | 0.9 | 0.00 | 0.00 | 0.00 | 51 | 986.5 |
| 20260905180404 | 86 | 221 | 0.9 | 5.2 | 0.00 | 0.00 | 0.00 | 50 | 986.6 |
| 20260905170904 | 95 | 230 | 1.7 | 1.7 | 0.00 | 0.00 | 0.00 | 42 | 987.3 |
| 20260905170404 | 96 | 145 | 3.5 | 5.2 | 0.00 | 0.00 | 0.00 | 41 | 987.3 |
| 20260905160905 | 90 | 137 | 1.7 | 4.3 | 0.00 | 0.00 | 0.00 | 50 | 988.0 |
| 20260905160404 | 91 | 193 | 1.7 | 5.2 | 0.00 | 0.00 | 0.00 | 49 | 987.8 |
| 20260905150905 | 86 | 289 | 2.6 | 4.3 | 0.00 | 0.00 | 0.00 | 56 | 988.1 |
| 20260905150404 | 84 | 295 | 1.7 | 5.2 | 0.00 | 0.00 | 0.00 | 60 | 988.2 |
| 20260905140404 | 70 | 274 | 0.9 | 2.6 | 0.00 | 0.00 | 0.00 | 85 | 988.4 |
| 20260905130904 | 64 | 47 | 0.0 | 0.9 | 0.00 | 0.00 | 0.00 | 98 | 988.7 |
| 20260905130404 | 63 | 209 | 0.9 | 1.7 | 0.00 | 0.00 | 0.00 | 99 | 988.9 |
| 20260905120904 | 60 | 104 | 0.0 | 0.0 | 0.00 | 0.00 | 0.00 | 99 | 988.6 |
| 20260905120405 | 60 | 180 | 0.0 | 0.9 | 0.00 | 0.00 | 0.00 | 99 | 988.7 |